sensor_id;sensor_type;location;lat;lon;timestamp;P1;durP1;ratioP1;P2;durP2;ratioP2
12328;SDS011;6230;52.390;10.256;2023-03-12T00:02:15;9.47;;;5.50;;
12328;SDS011;6230;52.390;10.256;2023-03-12T00:04:41;6.03;;;5.17;;
12328;SDS011;6230;52.390;10.256;2023-03-12T00:07:07;7.10;;;4.93;;
12328;SDS011;6230;52.390;10.256;2023-03-12T00:09:36;6.87;;;5.23;;
12328;SDS011;6230;52.390;10.256;2023-03-12T00:12:03;7.07;;;3.93;;
12328;SDS011;6230;52.390;10.256;2023-03-12T00:14:29;6.77;;;4.10;;
12328;SDS011;6230;52.390;10.256;2023-03-12T00:16:55;7.13;;;4.10;;
12328;SDS011;6230;52.390;10.256;2023-03-12T00:19:20;4.00;;;3.47;;
12328;SDS011;6230;52.390;10.256;2023-03-12T00:21:46;8.37;;;4.27;;
12328;SDS011;6230;52.390;10.256;2023-03-12T00:24:12;7.60;;;4.10;;
12328;SDS011;6230;52.390;10.256;2023-03-12T00:26:37;6.50;;;3.60;;
12328;SDS011;6230;52.390;10.256;2023-03-12T00:29:03;15.03;;;7.83;;
12328;SDS011;6230;52.390;10.256;2023-03-12T00:31:30;6.97;;;4.90;;
12328;SDS011;6230;52.390;10.256;2023-03-12T00:33:56;26.93;;;12.80;;
12328;SDS011;6230;52.390;10.256;2023-03-12T00:36:24;14.07;;;8.37;;
12328;SDS011;6230;52.390;10.256;2023-03-12T00:38:51;5.20;;;4.17;;
12328;SDS011;6230;52.390;10.256;2023-03-12T00:41:17;5.90;;;4.17;;
12328;SDS011;6230;52.390;10.256;2023-03-12T00:43:44;7.60;;;4.60;;
12328;SDS011;6230;52.390;10.256;2023-03-12T00:46:10;4.53;;;3.20;;
12328;SDS011;6230;52.390;10.256;2023-03-12T00:48:36;7.23;;;4.37;;
12328;SDS011;6230;52.390;10.256;2023-03-12T00:51:02;6.00;;;3.80;;
12328;SDS011;6230;52.390;10.256;2023-03-12T00:53:28;11.20;;;6.30;;
12328;SDS011;6230;52.390;10.256;2023-03-12T00:55:54;6.20;;;4.33;;
12328;SDS011;6230;52.390;10.256;2023-03-12T00:58:19;5.57;;;3.90;;
12328;SDS011;6230;52.390;10.256;2023-03-12T01:00:45;7.17;;;4.23;;
12328;SDS011;6230;52.390;10.256;2023-03-12T01:03:10;4.47;;;3.33;;
12328;SDS011;6230;52.390;10.256;2023-03-12T01:05:36;8.97;;;4.93;;
12328;SDS011;6230;52.390;10.256;2023-03-12T01:08:08;6.00;;;3.63;;
12328;SDS011;6230;52.390;10.256;2023-03-12T01:10:35;4.63;;;3.43;;
12328;SDS011;6230;52.390;10.256;2023-03-12T01:13:01;5.50;;;3.63;;
12328;SDS011;6230;52.390;10.256;2023-03-12T01:15:27;8.23;;;4.37;;
12328;SDS011;6230;52.390;10.256;2023-03-12T01:17:53;7.03;;;3.70;;
12328;SDS011;6230;52.390;10.256;2023-03-12T01:20:19;7.53;;;3.97;;
12328;SDS011;6230;52.390;10.256;2023-03-12T01:22:46;9.97;;;3.40;;
12328;SDS011;6230;52.390;10.256;2023-03-12T01:25:12;12.63;;;4.73;;
12328;SDS011;6230;52.390;10.256;2023-03-12T01:27:40;9.17;;;3.93;;
12328;SDS011;6230;52.390;10.256;2023-03-12T01:30:06;9.67;;;4.50;;
12328;SDS011;6230;52.390;10.256;2023-03-12T01:32:32;9.57;;;4.73;;
12328;SDS011;6230;52.390;10.256;2023-03-12T01:34:58;10.10;;;4.57;;
12328;SDS011;6230;52.390;10.256;2023-03-12T01:37:24;12.77;;;6.73;;
12328;SDS011;6230;52.390;10.256;2023-03-12T01:39:50;4.27;;;3.10;;
12328;SDS011;6230;52.390;10.256;2023-03-12T01:42:16;4.27;;;3.10;;
12328;SDS011;6230;52.390;10.256;2023-03-12T01:44:52;4.13;;;3.47;;
12328;SDS011;6230;52.390;10.256;2023-03-12T01:47:23;5.77;;;3.40;;
12328;SDS011;6230;52.390;10.256;2023-03-12T01:49:49;8.50;;;4.37;;
12328;SDS011;6230;52.390;10.256;2023-03-12T01:52:32;3.33;;;3.03;;
12328;SDS011;6230;52.390;10.256;2023-03-12T01:55:02;5.60;;;4.13;;
12328;SDS011;6230;52.390;10.256;2023-03-12T01:57:38;6.10;;;3.70;;
12328;SDS011;6230;52.390;10.256;2023-03-12T02:00:24;5.07;;;3.30;;
12328;SDS011;6230;52.390;10.256;2023-03-12T02:02:51;5.63;;;2.93;;
12328;SDS011;6230;52.390;10.256;2023-03-12T02:08:12;8.50;;;4.57;;
12328;SDS011;6230;52.390;10.256;2023-03-12T02:10:40;11.20;;;5.47;;
12328;SDS011;6230;52.390;10.256;2023-03-12T02:13:06;6.50;;;3.53;;
12328;SDS011;6230;52.390;10.256;2023-03-12T02:15:32;6.33;;;3.57;;
12328;SDS011;6230;52.390;10.256;2023-03-12T02:18:01;3.47;;;2.60;;
12328;SDS011;6230;52.390;10.256;2023-03-12T02:20:33;5.43;;;4.10;;
12328;SDS011;6230;52.390;10.256;2023-03-12T02:23:11;7.93;;;4.03;;
12328;SDS011;6230;52.390;10.256;2023-03-12T02:25:45;4.10;;;2.70;;
12328;SDS011;6230;52.390;10.256;2023-03-12T02:28:14;5.57;;;3.33;;
12328;SDS011;6230;52.390;10.256;2023-03-12T02:30:43;9.47;;;4.10;;
12328;SDS011;6230;52.390;10.256;2023-03-12T02:33:12;8.93;;;3.23;;
12328;SDS011;6230;52.390;10.256;2023-03-12T02:35:39;7.83;;;4.27;;
12328;SDS011;6230;52.390;10.256;2023-03-12T02:40:58;4.23;;;2.83;;
12328;SDS011;6230;52.390;10.256;2023-03-12T02:43:29;6.67;;;3.73;;
12328;SDS011;6230;52.390;10.256;2023-03-12T02:45:55;7.93;;;3.67;;
12328;SDS011;6230;52.390;10.256;2023-03-12T02:48:20;5.73;;;3.50;;
12328;SDS011;6230;52.390;10.256;2023-03-12T02:50:46;7.03;;;2.73;;
12328;SDS011;6230;52.390;10.256;2023-03-12T02:53:12;5.03;;;3.20;;
12328;SDS011;6230;52.390;10.256;2023-03-12T02:55:37;6.33;;;4.07;;
12328;SDS011;6230;52.390;10.256;2023-03-12T02:58:03;5.40;;;3.63;;
12328;SDS011;6230;52.390;10.256;2023-03-12T03:00:28;4.50;;;3.30;;
12328;SDS011;6230;52.390;10.256;2023-03-12T03:02:57;4.00;;;3.00;;
12328;SDS011;6230;52.390;10.256;2023-03-12T03:05:23;6.10;;;3.63;;
12328;SDS011;6230;52.390;10.256;2023-03-12T03:07:49;4.40;;;3.33;;
12328;SDS011;6230;52.390;10.256;2023-03-12T03:10:14;6.10;;;3.97;;
12328;SDS011;6230;52.390;10.256;2023-03-12T03:12:41;4.27;;;3.60;;
12328;SDS011;6230;52.390;10.256;2023-03-12T03:15:07;6.43;;;3.47;;
12328;SDS011;6230;52.390;10.256;2023-03-12T03:17:33;5.07;;;3.87;;
12328;SDS011;6230;52.390;10.256;2023-03-12T03:19:59;8.93;;;3.27;;
12328;SDS011;6230;52.390;10.256;2023-03-12T03:22:24;6.63;;;3.60;;
12328;SDS011;6230;52.390;10.256;2023-03-12T03:24:51;5.57;;;3.53;;
12328;SDS011;6230;52.390;10.256;2023-03-12T03:27:17;6.53;;;3.57;;
12328;SDS011;6230;52.390;10.256;2023-03-12T03:29:43;9.87;;;4.10;;
12328;SDS011;6230;52.390;10.256;2023-03-12T03:32:10;7.47;;;3.90;;
12328;SDS011;6230;52.390;10.256;2023-03-12T03:34:36;11.27;;;4.93;;
12328;SDS011;6230;52.390;10.256;2023-03-12T03:37:03;5.10;;;3.63;;
12328;SDS011;6230;52.390;10.256;2023-03-12T03:39:29;6.47;;;3.43;;
12328;SDS011;6230;52.390;10.256;2023-03-12T03:41:54;14.53;;;4.90;;
12328;SDS011;6230;52.390;10.256;2023-03-12T03:44:20;7.60;;;3.47;;
12328;SDS011;6230;52.390;10.256;2023-03-12T03:46:47;5.50;;;3.50;;
12328;SDS011;6230;52.390;10.256;2023-03-12T03:49:13;7.07;;;4.57;;
12328;SDS011;6230;52.390;10.256;2023-03-12T03:51:39;5.23;;;3.07;;
12328;SDS011;6230;52.390;10.256;2023-03-12T03:54:06;5.53;;;3.40;;
12328;SDS011;6230;52.390;10.256;2023-03-12T03:56:33;3.80;;;3.10;;
12328;SDS011;6230;52.390;10.256;2023-03-12T03:58:59;5.47;;;2.87;;
12328;SDS011;6230;52.390;10.256;2023-03-12T04:01:26;3.50;;;2.80;;
12328;SDS011;6230;52.390;10.256;2023-03-12T04:03:52;6.67;;;3.57;;
12328;SDS011;6230;52.390;10.256;2023-03-12T04:06:18;9.33;;;3.50;;
12328;SDS011;6230;52.390;10.256;2023-03-12T04:08:43;4.93;;;2.60;;
12328;SDS011;6230;52.390;10.256;2023-03-12T04:11:10;7.80;;;3.40;;
12328;SDS011;6230;52.390;10.256;2023-03-12T04:13:38;3.87;;;3.10;;
12328;SDS011;6230;52.390;10.256;2023-03-12T04:16:04;6.00;;;3.53;;
12328;SDS011;6230;52.390;10.256;2023-03-12T04:18:30;4.10;;;3.07;;
12328;SDS011;6230;52.390;10.256;2023-03-12T04:20:56;6.17;;;3.27;;
12328;SDS011;6230;52.390;10.256;2023-03-12T04:23:21;5.23;;;3.70;;
12328;SDS011;6230;52.390;10.256;2023-03-12T04:25:47;6.80;;;3.33;;
12328;SDS011;6230;52.390;10.256;2023-03-12T04:28:13;7.77;;;3.77;;
12328;SDS011;6230;52.390;10.256;2023-03-12T04:30:38;5.23;;;3.73;;
12328;SDS011;6230;52.390;10.256;2023-03-12T04:33:04;10.53;;;4.37;;
12328;SDS011;6230;52.390;10.256;2023-03-12T04:35:31;6.13;;;3.90;;
12328;SDS011;6230;52.390;10.256;2023-03-12T04:37:56;6.13;;;3.37;;
12328;SDS011;6230;52.390;10.256;2023-03-12T04:40:22;5.83;;;2.97;;
12328;SDS011;6230;52.390;10.256;2023-03-12T04:42:47;8.37;;;3.67;;
12328;SDS011;6230;52.390;10.256;2023-03-12T04:45:13;4.93;;;3.27;;
12328;SDS011;6230;52.390;10.256;2023-03-12T04:47:39;5.70;;;3.47;;
12328;SDS011;6230;52.390;10.256;2023-03-12T04:50:05;5.77;;;3.00;;
12328;SDS011;6230;52.390;10.256;2023-03-12T04:52:32;6.23;;;2.90;;
12328;SDS011;6230;52.390;10.256;2023-03-12T04:54:57;6.87;;;3.53;;
12328;SDS011;6230;52.390;10.256;2023-03-12T04:57:25;6.93;;;3.43;;
12328;SDS011;6230;52.390;10.256;2023-03-12T04:59:51;5.77;;;3.50;;
12328;SDS011;6230;52.390;10.256;2023-03-12T05:02:17;7.17;;;3.57;;
12328;SDS011;6230;52.390;10.256;2023-03-12T05:04:42;4.07;;;3.33;;
12328;SDS011;6230;52.390;10.256;2023-03-12T05:07:08;7.30;;;2.80;;
12328;SDS011;6230;52.390;10.256;2023-03-12T05:09:34;4.53;;;3.70;;
12328;SDS011;6230;52.390;10.256;2023-03-12T05:11:59;6.07;;;3.10;;
12328;SDS011;6230;52.390;10.256;2023-03-12T05:14:25;5.57;;;2.87;;
12328;SDS011;6230;52.390;10.256;2023-03-12T05:16:51;5.90;;;2.80;;
12328;SDS011;6230;52.390;10.256;2023-03-12T05:19:16;5.33;;;3.50;;
12328;SDS011;6230;52.390;10.256;2023-03-12T05:21:42;6.10;;;2.50;;
12328;SDS011;6230;52.390;10.256;2023-03-12T05:24:08;5.00;;;3.47;;
12328;SDS011;6230;52.390;10.256;2023-03-12T05:26:34;5.90;;;4.00;;
12328;SDS011;6230;52.390;10.256;2023-03-12T05:29:00;9.93;;;4.27;;
12328;SDS011;6230;52.390;10.256;2023-03-12T05:31:26;7.20;;;3.80;;
12328;SDS011;6230;52.390;10.256;2023-03-12T05:33:56;7.63;;;4.10;;
12328;SDS011;6230;52.390;10.256;2023-03-12T05:36:22;6.43;;;3.63;;
12328;SDS011;6230;52.390;10.256;2023-03-12T05:38:48;5.47;;;3.57;;
12328;SDS011;6230;52.390;10.256;2023-03-12T05:41:24;6.07;;;2.93;;
12328;SDS011;6230;52.390;10.256;2023-03-12T05:43:52;10.73;;;3.60;;
12328;SDS011;6230;52.390;10.256;2023-03-12T05:46:20;6.00;;;3.00;;
12328;SDS011;6230;52.390;10.256;2023-03-12T05:48:46;6.33;;;3.67;;
12328;SDS011;6230;52.390;10.256;2023-03-12T05:51:11;5.07;;;3.20;;
12328;SDS011;6230;52.390;10.256;2023-03-12T05:53:37;7.03;;;3.70;;
12328;SDS011;6230;52.390;10.256;2023-03-12T05:56:03;5.77;;;3.43;;
12328;SDS011;6230;52.390;10.256;2023-03-12T05:58:30;6.13;;;3.97;;
12328;SDS011;6230;52.390;10.256;2023-03-12T06:00:57;4.00;;;3.60;;
12328;SDS011;6230;52.390;10.256;2023-03-12T06:03:22;5.27;;;3.23;;
12328;SDS011;6230;52.390;10.256;2023-03-12T06:05:48;7.20;;;3.30;;
12328;SDS011;6230;52.390;10.256;2023-03-12T06:08:14;4.90;;;3.30;;
12328;SDS011;6230;52.390;10.256;2023-03-12T06:10:40;4.80;;;3.43;;
12328;SDS011;6230;52.390;10.256;2023-03-12T06:13:05;7.13;;;4.57;;
12328;SDS011;6230;52.390;10.256;2023-03-12T06:15:32;7.37;;;4.60;;
12328;SDS011;6230;52.390;10.256;2023-03-12T06:17:58;7.47;;;4.27;;
12328;SDS011;6230;52.390;10.256;2023-03-12T06:20:23;6.53;;;4.17;;
12328;SDS011;6230;52.390;10.256;2023-03-12T06:22:49;7.43;;;4.10;;
12328;SDS011;6230;52.390;10.256;2023-03-12T06:25:14;6.90;;;4.00;;
12328;SDS011;6230;52.390;10.256;2023-03-12T06:27:40;9.60;;;4.17;;
12328;SDS011;6230;52.390;10.256;2023-03-12T06:30:06;6.70;;;3.77;;
12328;SDS011;6230;52.390;10.256;2023-03-12T06:32:32;5.63;;;3.30;;
12328;SDS011;6230;52.390;10.256;2023-03-12T06:34:58;5.80;;;3.30;;
12328;SDS011;6230;52.390;10.256;2023-03-12T06:37:28;5.93;;;3.90;;
12328;SDS011;6230;52.390;10.256;2023-03-12T06:39:54;7.00;;;3.70;;
12328;SDS011;6230;52.390;10.256;2023-03-12T06:42:19;7.07;;;4.50;;
12328;SDS011;6230;52.390;10.256;2023-03-12T06:44:46;7.90;;;3.80;;
12328;SDS011;6230;52.390;10.256;2023-03-12T06:47:12;3.37;;;3.07;;
12328;SDS011;6230;52.390;10.256;2023-03-12T06:49:37;4.40;;;3.70;;
12328;SDS011;6230;52.390;10.256;2023-03-12T06:52:03;4.43;;;3.50;;
12328;SDS011;6230;52.390;10.256;2023-03-12T06:54:29;6.93;;;4.10;;
12328;SDS011;6230;52.390;10.256;2023-03-12T06:56:56;6.97;;;3.40;;
12328;SDS011;6230;52.390;10.256;2023-03-12T06:59:23;5.13;;;3.33;;
12328;SDS011;6230;52.390;10.256;2023-03-12T07:01:49;6.77;;;3.67;;
12328;SDS011;6230;52.390;10.256;2023-03-12T07:04:15;6.30;;;3.80;;
12328;SDS011;6230;52.390;10.256;2023-03-12T07:06:41;6.17;;;3.70;;
12328;SDS011;6230;52.390;10.256;2023-03-12T07:09:06;6.97;;;3.50;;
12328;SDS011;6230;52.390;10.256;2023-03-12T07:11:32;5.40;;;3.30;;
12328;SDS011;6230;52.390;10.256;2023-03-12T07:13:58;5.57;;;3.50;;
12328;SDS011;6230;52.390;10.256;2023-03-12T07:16:23;7.00;;;3.70;;
12328;SDS011;6230;52.390;10.256;2023-03-12T07:18:49;5.70;;;4.10;;
12328;SDS011;6230;52.390;10.256;2023-03-12T07:21:14;7.53;;;4.20;;
12328;SDS011;6230;52.390;10.256;2023-03-12T07:23:46;6.30;;;4.10;;
12328;SDS011;6230;52.390;10.256;2023-03-12T07:26:13;5.77;;;3.30;;
12328;SDS011;6230;52.390;10.256;2023-03-12T07:28:38;8.67;;;2.90;;
12328;SDS011;6230;52.390;10.256;2023-03-12T07:31:04;3.93;;;2.77;;
12328;SDS011;6230;52.390;10.256;2023-03-12T07:33:30;5.27;;;3.00;;
12328;SDS011;6230;52.390;10.256;2023-03-12T07:35:56;3.90;;;2.70;;
12328;SDS011;6230;52.390;10.256;2023-03-12T07:38:22;3.73;;;3.00;;
12328;SDS011;6230;52.390;10.256;2023-03-12T07:40:51;3.40;;;2.70;;
12328;SDS011;6230;52.390;10.256;2023-03-12T07:43:18;4.93;;;2.90;;
12328;SDS011;6230;52.390;10.256;2023-03-12T07:45:43;6.27;;;3.03;;
12328;SDS011;6230;52.390;10.256;2023-03-12T07:48:09;7.83;;;2.83;;
12328;SDS011;6230;52.390;10.256;2023-03-12T07:50:35;5.23;;;2.70;;
12328;SDS011;6230;52.390;10.256;2023-03-12T07:53:01;3.50;;;2.80;;
12328;SDS011;6230;52.390;10.256;2023-03-12T07:55:28;5.47;;;2.90;;
12328;SDS011;6230;52.390;10.256;2023-03-12T07:57:54;6.40;;;2.83;;
12328;SDS011;6230;52.390;10.256;2023-03-12T08:00:22;5.40;;;2.23;;
12328;SDS011;6230;52.390;10.256;2023-03-12T08:02:48;5.83;;;2.77;;
12328;SDS011;6230;52.390;10.256;2023-03-12T08:05:14;5.07;;;2.37;;
12328;SDS011;6230;52.390;10.256;2023-03-12T08:07:39;6.70;;;2.30;;
12328;SDS011;6230;52.390;10.256;2023-03-12T08:10:06;2.93;;;2.30;;
12328;SDS011;6230;52.390;10.256;2023-03-12T08:12:32;9.13;;;2.80;;
12328;SDS011;6230;52.390;10.256;2023-03-12T08:14:58;4.73;;;2.40;;
12328;SDS011;6230;52.390;10.256;2023-03-12T08:17:23;4.57;;;2.50;;
12328;SDS011;6230;52.390;10.256;2023-03-12T08:19:49;4.13;;;2.90;;
12328;SDS011;6230;52.390;10.256;2023-03-12T08:22:14;3.37;;;2.40;;
12328;SDS011;6230;52.390;10.256;2023-03-12T08:24:41;6.43;;;2.63;;
12328;SDS011;6230;52.390;10.256;2023-03-12T08:27:07;3.40;;;2.20;;
12328;SDS011;6230;52.390;10.256;2023-03-12T08:29:33;4.27;;;2.33;;
12328;SDS011;6230;52.390;10.256;2023-03-12T08:31:59;3.90;;;2.47;;
12328;SDS011;6230;52.390;10.256;2023-03-12T08:34:25;4.80;;;2.00;;
12328;SDS011;6230;52.390;10.256;2023-03-12T08:36:51;4.27;;;3.17;;
12328;SDS011;6230;52.390;10.256;2023-03-12T08:39:16;6.53;;;2.57;;
12328;SDS011;6230;52.390;10.256;2023-03-12T08:41:42;7.47;;;2.60;;
12328;SDS011;6230;52.390;10.256;2023-03-12T08:44:07;6.57;;;3.43;;
12328;SDS011;6230;52.390;10.256;2023-03-12T08:46:33;5.43;;;2.93;;
12328;SDS011;6230;52.390;10.256;2023-03-12T08:48:59;5.73;;;2.63;;
12328;SDS011;6230;52.390;10.256;2023-03-12T08:51:24;4.90;;;3.00;;
12328;SDS011;6230;52.390;10.256;2023-03-12T08:53:50;3.97;;;2.87;;
12328;SDS011;6230;52.390;10.256;2023-03-12T08:56:15;15.43;;;8.27;;
12328;SDS011;6230;52.390;10.256;2023-03-12T08:58:41;6.53;;;2.80;;
12328;SDS011;6230;52.390;10.256;2023-03-12T09:01:07;7.93;;;4.07;;
12328;SDS011;6230;52.390;10.256;2023-03-12T09:03:34;4.73;;;2.80;;
12328;SDS011;6230;52.390;10.256;2023-03-12T09:06:04;5.43;;;2.50;;
12328;SDS011;6230;52.390;10.256;2023-03-12T09:08:33;6.73;;;3.07;;
12328;SDS011;6230;52.390;10.256;2023-03-12T09:10:59;5.10;;;2.70;;
12328;SDS011;6230;52.390;10.256;2023-03-12T09:13:25;5.83;;;3.20;;
12328;SDS011;6230;52.390;10.256;2023-03-12T09:15:51;5.23;;;3.30;;
12328;SDS011;6230;52.390;10.256;2023-03-12T09:18:17;8.90;;;3.60;;
12328;SDS011;6230;52.390;10.256;2023-03-12T09:20:44;5.73;;;3.30;;
12328;SDS011;6230;52.390;10.256;2023-03-12T09:23:09;12.90;;;3.60;;
12328;SDS011;6230;52.390;10.256;2023-03-12T09:25:35;5.97;;;2.80;;
12328;SDS011;6230;52.390;10.256;2023-03-12T09:28:00;6.23;;;2.93;;
12328;SDS011;6230;52.390;10.256;2023-03-12T09:30:26;3.87;;;2.67;;
12328;SDS011;6230;52.390;10.256;2023-03-12T09:32:54;6.63;;;2.53;;
12328;SDS011;6230;52.390;10.256;2023-03-12T09:35:20;3.90;;;3.27;;
12328;SDS011;6230;52.390;10.256;2023-03-12T09:37:49;3.73;;;2.60;;
12328;SDS011;6230;52.390;10.256;2023-03-12T09:40:16;6.37;;;3.03;;
12328;SDS011;6230;52.390;10.256;2023-03-12T09:43:01;5.90;;;3.10;;
12328;SDS011;6230;52.390;10.256;2023-03-12T09:45:32;5.77;;;3.17;;
12328;SDS011;6230;52.390;10.256;2023-03-12T09:48:04;4.93;;;2.50;;
12328;SDS011;6230;52.390;10.256;2023-03-12T09:50:35;5.63;;;2.50;;
12328;SDS011;6230;52.390;10.256;2023-03-12T09:55:39;7.00;;;2.90;;
12328;SDS011;6230;52.390;10.256;2023-03-12T09:58:51;5.80;;;3.20;;
12328;SDS011;6230;52.390;10.256;2023-03-12T10:03:41;5.00;;;2.70;;
12328;SDS011;6230;52.390;10.256;2023-03-12T10:09:46;5.73;;;2.30;;
12328;SDS011;6230;52.390;10.256;2023-03-12T10:16:00;6.37;;;3.13;;
12328;SDS011;6230;52.390;10.256;2023-03-12T10:18:33;4.10;;;2.47;;
12328;SDS011;6230;52.390;10.256;2023-03-12T10:26:38;2.73;;;2.17;;
12328;SDS011;6230;52.390;10.256;2023-03-12T10:31:59;3.60;;;2.40;;
12328;SDS011;6230;52.390;10.256;2023-03-12T10:34:33;5.60;;;2.53;;
12328;SDS011;6230;52.390;10.256;2023-03-12T10:39:46;5.97;;;2.60;;
12328;SDS011;6230;52.390;10.256;2023-03-12T10:42:13;5.17;;;2.93;;
12328;SDS011;6230;52.390;10.256;2023-03-12T10:44:50;4.50;;;2.50;;
12328;SDS011;6230;52.390;10.256;2023-03-12T10:47:40;7.07;;;2.57;;
12328;SDS011;6230;52.390;10.256;2023-03-12T10:52:50;10.63;;;2.73;;
12328;SDS011;6230;52.390;10.256;2023-03-12T10:55:23;5.53;;;2.53;;
12328;SDS011;6230;52.390;10.256;2023-03-12T10:57:49;7.27;;;2.87;;
12328;SDS011;6230;52.390;10.256;2023-03-12T11:00:17;4.77;;;3.03;;
12328;SDS011;6230;52.390;10.256;2023-03-12T11:02:46;13.03;;;6.87;;
12328;SDS011;6230;52.390;10.256;2023-03-12T11:07:57;4.93;;;2.80;;
12328;SDS011;6230;52.390;10.256;2023-03-12T11:15:54;4.67;;;2.40;;
12328;SDS011;6230;52.390;10.256;2023-03-12T11:18:40;6.40;;;3.40;;
12328;SDS011;6230;52.390;10.256;2023-03-12T11:21:19;6.13;;;2.53;;
12328;SDS011;6230;52.390;10.256;2023-03-12T11:23:46;4.83;;;2.53;;
12328;SDS011;6230;52.390;10.256;2023-03-12T11:29:24;9.53;;;8.23;;
12328;SDS011;6230;52.390;10.256;2023-03-12T11:34:43;4.67;;;2.80;;
12328;SDS011;6230;52.390;10.256;2023-03-12T11:40:01;6.10;;;2.80;;
12328;SDS011;6230;52.390;10.256;2023-03-12T11:54:43;5.93;;;4.83;;
12328;SDS011;6230;52.390;10.256;2023-03-12T12:00:24;6.33;;;3.43;;
12328;SDS011;6230;52.390;10.256;2023-03-12T12:06:04;4.57;;;2.83;;
12328;SDS011;6230;52.390;10.256;2023-03-12T12:09:01;7.87;;;3.60;;
12328;SDS011;6230;52.390;10.256;2023-03-12T12:14:50;4.03;;;3.17;;
12328;SDS011;6230;52.390;10.256;2023-03-12T12:17:38;5.57;;;3.43;;
12328;SDS011;6230;52.390;10.256;2023-03-12T12:20:27;9.33;;;3.70;;
12328;SDS011;6230;52.390;10.256;2023-03-12T12:23:15;7.57;;;5.30;;
12328;SDS011;6230;52.390;10.256;2023-03-12T12:28:38;9.97;;;4.80;;
12328;SDS011;6230;52.390;10.256;2023-03-12T12:31:46;9.33;;;3.57;;
12328;SDS011;6230;52.390;10.256;2023-03-12T12:37:20;5.23;;;4.73;;
12328;SDS011;6230;52.390;10.256;2023-03-12T12:45:57;6.53;;;3.83;;
12328;SDS011;6230;52.390;10.256;2023-03-12T12:48:47;6.00;;;4.10;;
12328;SDS011;6230;52.390;10.256;2023-03-12T12:51:22;6.80;;;5.57;;
12328;SDS011;6230;52.390;10.256;2023-03-12T12:53:58;9.13;;;4.87;;
12328;SDS011;6230;52.390;10.256;2023-03-12T12:56:32;5.27;;;3.90;;
12328;SDS011;6230;52.390;10.256;2023-03-12T13:01:56;7.27;;;4.07;;
12328;SDS011;6230;52.390;10.256;2023-03-12T13:10:03;11.73;;;10.50;;
12328;SDS011;6230;52.390;10.256;2023-03-12T13:14:49;6.33;;;5.47;;
12328;SDS011;6230;52.390;10.256;2023-03-12T13:26:19;8.87;;;5.10;;
12328;SDS011;6230;52.390;10.256;2023-03-12T13:28:56;9.77;;;5.30;;
12328;SDS011;6230;52.390;10.256;2023-03-12T13:33:52;11.73;;;6.17;;
12328;SDS011;6230;52.390;10.256;2023-03-12T13:36:22;5.97;;;5.37;;
12328;SDS011;6230;52.390;10.256;2023-03-12T13:41:34;9.43;;;5.80;;
12328;SDS011;6230;52.390;10.256;2023-03-12T13:46:47;9.00;;;6.10;;
12328;SDS011;6230;52.390;10.256;2023-03-12T13:49:21;12.17;;;6.47;;
12328;SDS011;6230;52.390;10.256;2023-03-12T13:51:53;11.77;;;10.70;;
12328;SDS011;6230;52.390;10.256;2023-03-12T13:54:26;10.50;;;5.90;;
12328;SDS011;6230;52.390;10.256;2023-03-12T13:56:56;12.70;;;6.90;;
12328;SDS011;6230;52.390;10.256;2023-03-12T13:59:28;8.00;;;6.70;;
12328;SDS011;6230;52.390;10.256;2023-03-12T14:01:59;8.27;;;6.73;;
12328;SDS011;6230;52.390;10.256;2023-03-12T14:04:33;8.70;;;6.47;;
12328;SDS011;6230;52.390;10.256;2023-03-12T14:12:36;8.07;;;5.87;;
12328;SDS011;6230;52.390;10.256;2023-03-12T14:17:56;7.60;;;6.00;;
12328;SDS011;6230;52.390;10.256;2023-03-12T14:20:25;19.70;;;17.90;;
12328;SDS011;6230;52.390;10.256;2023-03-12T14:22:59;7.47;;;6.20;;
12328;SDS011;6230;52.390;10.256;2023-03-12T14:25:39;7.07;;;6.20;;
12328;SDS011;6230;52.390;10.256;2023-03-12T14:28:21;7.60;;;6.40;;
12328;SDS011;6230;52.390;10.256;2023-03-12T14:30:58;8.63;;;6.87;;
12328;SDS011;6230;52.390;10.256;2023-03-12T14:33:30;10.23;;;6.83;;
12328;SDS011;6230;52.390;10.256;2023-03-12T14:36:06;11.47;;;6.50;;
12328;SDS011;6230;52.390;10.256;2023-03-12T14:38:44;8.50;;;6.17;;
12328;SDS011;6230;52.390;10.256;2023-03-12T14:41:18;8.33;;;7.47;;
12328;SDS011;6230;52.390;10.256;2023-03-12T14:43:50;10.20;;;7.13;;
12328;SDS011;6230;52.390;10.256;2023-03-12T14:46:18;7.40;;;6.70;;
12328;SDS011;6230;52.390;10.256;2023-03-12T14:48:51;14.10;;;9.77;;
12328;SDS011;6230;52.390;10.256;2023-03-12T14:51:26;9.63;;;8.30;;
12328;SDS011;6230;52.390;10.256;2023-03-12T14:53:53;10.53;;;7.23;;
12328;SDS011;6230;52.390;10.256;2023-03-12T14:58:57;9.30;;;6.73;;
12328;SDS011;6230;52.390;10.256;2023-03-12T15:01:28;8.37;;;7.07;;
12328;SDS011;6230;52.390;10.256;2023-03-12T15:04:02;7.93;;;7.17;;
12328;SDS011;6230;52.390;10.256;2023-03-12T15:07:05;7.23;;;6.57;;
12328;SDS011;6230;52.390;10.256;2023-03-12T15:09:28;9.67;;;6.77;;
12328;SDS011;6230;52.390;10.256;2023-03-12T15:12:06;8.33;;;7.53;;
12328;SDS011;6230;52.390;10.256;2023-03-12T15:14:42;9.83;;;7.50;;
12328;SDS011;6230;52.390;10.256;2023-03-12T15:17:10;10.57;;;7.83;;
12328;SDS011;6230;52.390;10.256;2023-03-12T15:19:40;9.63;;;7.70;;
12328;SDS011;6230;52.390;10.256;2023-03-12T15:22:14;10.87;;;8.63;;
12328;SDS011;6230;52.390;10.256;2023-03-12T15:24:42;10.73;;;8.63;;
12328;SDS011;6230;52.390;10.256;2023-03-12T15:29:49;11.40;;;9.70;;
12328;SDS011;6230;52.390;10.256;2023-03-12T15:32:16;10.23;;;9.00;;
12328;SDS011;6230;52.390;10.256;2023-03-12T15:34:44;12.47;;;8.70;;
12328;SDS011;6230;52.390;10.256;2023-03-12T15:39:56;10.57;;;9.47;;
12328;SDS011;6230;52.390;10.256;2023-03-12T15:42:26;12.07;;;10.87;;
12328;SDS011;6230;52.390;10.256;2023-03-12T15:44:57;14.90;;;11.83;;
12328;SDS011;6230;52.390;10.256;2023-03-12T15:47:27;11.67;;;9.43;;
12328;SDS011;6230;52.390;10.256;2023-03-12T15:50:00;12.47;;;10.20;;
12328;SDS011;6230;52.390;10.256;2023-03-12T15:52:34;11.90;;;9.27;;
12328;SDS011;6230;52.390;10.256;2023-03-12T15:57:32;13.03;;;10.17;;
12328;SDS011;6230;52.390;10.256;2023-03-12T16:02:57;20.00;;;15.07;;
12328;SDS011;6230;52.390;10.256;2023-03-12T16:05:37;15.73;;;12.20;;
12328;SDS011;6230;52.390;10.256;2023-03-12T16:11:12;14.03;;;12.53;;
12328;SDS011;6230;52.390;10.256;2023-03-12T16:13:43;14.83;;;13.00;;
12328;SDS011;6230;52.390;10.256;2023-03-12T16:16:11;14.60;;;13.00;;
12328;SDS011;6230;52.390;10.256;2023-03-12T16:18:37;14.33;;;12.07;;
12328;SDS011;6230;52.390;10.256;2023-03-12T16:21:03;13.80;;;11.27;;
12328;SDS011;6230;52.390;10.256;2023-03-12T16:23:29;14.30;;;11.57;;
12328;SDS011;6230;52.390;10.256;2023-03-12T16:25:55;14.83;;;11.50;;
12328;SDS011;6230;52.390;10.256;2023-03-12T16:28:23;12.93;;;11.57;;
12328;SDS011;6230;52.390;10.256;2023-03-12T16:30:50;12.63;;;11.07;;
12328;SDS011;6230;52.390;10.256;2023-03-12T16:33:17;16.40;;;11.57;;
12328;SDS011;6230;52.390;10.256;2023-03-12T16:35:45;13.50;;;12.10;;
12328;SDS011;6230;52.390;10.256;2023-03-12T16:38:10;15.80;;;12.47;;
12328;SDS011;6230;52.390;10.256;2023-03-12T16:40:37;16.63;;;11.27;;
12328;SDS011;6230;52.390;10.256;2023-03-12T16:43:06;15.33;;;11.63;;
12328;SDS011;6230;52.390;10.256;2023-03-12T16:45:37;18.03;;;12.80;;
12328;SDS011;6230;52.390;10.256;2023-03-12T16:48:10;16.57;;;13.23;;
12328;SDS011;6230;52.390;10.256;2023-03-12T16:50:44;16.80;;;14.63;;
12328;SDS011;6230;52.390;10.256;2023-03-12T16:53:20;16.60;;;13.57;;
12328;SDS011;6230;52.390;10.256;2023-03-12T16:55:48;18.37;;;14.03;;
12328;SDS011;6230;52.390;10.256;2023-03-12T16:58:17;16.60;;;12.97;;
12328;SDS011;6230;52.390;10.256;2023-03-12T17:00:44;18.67;;;15.47;;
12328;SDS011;6230;52.390;10.256;2023-03-12T17:03:19;18.03;;;13.67;;
12328;SDS011;6230;52.390;10.256;2023-03-12T17:05:58;16.00;;;13.30;;
12328;SDS011;6230;52.390;10.256;2023-03-12T17:08:24;18.40;;;13.33;;